Time;durP1;ratioP1;P1;durP2;ratioP2;P2;SDS_P1;SDS_P2;PMS_P1;PMS_P2;Temp;Humidity;BMP_temperature;BMP_pressure;BME280_temperature;BME280_humidity;BME280_pressure;Samples;Min_cycle;Max_cycle;Signal;HPM_P1;HPM_P2
2022/05/27 00:03:28;;;;;;;;;;;;;;;22.21;41.29;96241.72;10335432;28;2583;-62
2022/05/27 00:08:28;;;;;;;;;;;;;;;22.22;41.24;96237.22;10342187;28;2674;-61
2022/05/27 00:13:29;;;;;;;;;;;;;;;22.20;41.22;96232.22;10346912;28;2538;-60
2022/05/27 00:18:29;;;;;;;;;;;;;;;22.22;41.01;96224.00;10331113;28;2139;-59
2022/05/27 00:23:29;;;;;;;;;;;;;;;22.19;41.02;96225.38;10327905;28;2325;-60
2022/05/27 00:28:30;;;;;;;;;;;;;;;22.20;41.08;96224.28;10349754;28;2231;-60
2022/05/27 00:33:31;;;;;;;;;;;;;;;22.19;41.16;96214.00;10350795;28;2236;-61
2022/05/27 00:38:31;;;;;;;;;;;;;;;22.20;41.05;96205.81;10333172;28;2646;-61
2022/05/27 00:43:32;;;;;;;;;;;;;;;22.19;40.99;96212.16;10352927;28;2319;-61
2022/05/27 00:48:34;;;;;;;;;;;;;;;22.19;41.02;96204.25;10341313;28;2321;-61
2022/05/27 00:53:57;;;;;;;;;;;;;;;22.17;41.13;96201.09;10316365;28;2326;-60
2022/05/27 00:59:02;;;;;;;;;;;;;;;22.16;40.95;96206.63;10327596;28;2584;-62
2022/05/27 01:04:02;;;;;;;;;;;;;;;22.17;40.93;96201.09;10351621;28;2523;-60
2022/05/27 01:09:03;;;;;;;;;;;;;;;22.17;41.35;96206.38;10314558;28;2686;-61
2022/05/27 01:14:14;;;;;;;;;;;;;;;22.15;41.24;96203.22;10349679;28;2786;-61
2022/05/27 01:24:45;;;;;;;;;;;;;;;22.15;40.96;96203.22;10350218;28;2322;-60
2022/05/27 01:30:10;;;;;;;;;;;;;;;22.16;40.93;96198.69;10338790;28;2405;-61
2022/05/27 01:35:25;;;;;;;;;;;;;;;22.15;41.01;96197.94;10355666;28;2244;-57
2022/05/27 01:40:29;;;;;;;;;;;;;;;22.15;40.92;96190.00;10346270;28;1993;-61
2022/05/27 01:45:48;;;;;;;;;;;;;;;22.15;41.17;96190.00;10339935;28;2409;-61
2022/05/27 01:50:50;;;;;;;;;;;;;;;22.15;41.11;96191.84;10349900;28;2334;-61
2022/05/27 01:55:54;;;;;;;;;;;;;;;22.15;41.08;96187.38;10345081;28;2304;-61
2022/05/27 02:00:54;;;;;;;;;;;;;;;22.15;41.01;96189.22;10345947;28;2349;-61
2022/05/27 02:05:56;;;;;;;;;;;;;;;22.14;40.84;96185.78;10342652;28;2346;-61
2022/05/27 02:10:57;;;;;;;;;;;;;;;22.13;40.83;96192.13;10328027;28;2421;-61
2022/05/27 02:15:58;;;;;;;;;;;;;;;22.14;40.88;96190.25;10339428;28;2310;-61
2022/05/27 02:21:03;;;;;;;;;;;;;;;22.14;40.82;96190.25;10330952;28;2294;-61
2022/05/27 02:26:06;;;;;;;;;;;;;;;22.12;40.68;96187.91;10351182;28;2342;-60
2022/05/27 02:31:08;;;;;;;;;;;;;;;22.11;40.95;96188.97;10353211;28;2427;-60
2022/05/27 02:36:09;;;;;;;;;;;;;;;22.13;40.95;96199.25;10320043;28;2013;-61
2022/05/27 02:41:19;;;;;;;;;;;;;;;22.12;41.15;96200.31;10338250;28;2242;-60
2022/05/27 02:46:26;;;;;;;;;;;;;;;22.12;40.88;96200.31;10331429;28;2306;-61
2022/05/27 02:51:30;;;;;;;;;;;;;;;22.12;40.90;96198.47;10343713;28;2389;-61
2022/05/27 02:56:32;;;;;;;;;;;;;;;22.10;40.95;96195.31;10352052;28;2318;-62
2022/05/27 03:01:32;;;;;;;;;;;;;;;22.10;41.26;96190.03;10345108;28;2333;-61
2022/05/27 03:06:56;;;;;;;;;;;;;;;22.10;40.86;96195.31;10353406;28;2397;-61
2022/05/27 03:12:06;;;;;;;;;;;;;;;22.09;40.93;96188.44;10349184;28;2326;-61
2022/05/27 03:17:06;;;;;;;;;;;;;;;22.08;40.89;96181.59;10334592;28;2313;-60
2022/05/27 03:22:06;;;;;;;;;;;;;;;22.07;40.83;96182.63;10342959;28;2440;-60
2022/05/27 03:27:06;;;;;;;;;;;;;;;22.08;40.99;96186.06;10352271;28;2429;-60
2022/05/27 03:32:20;;;;;;;;;;;;;;;22.06;41.16;96189.00;10339469;28;2377;-60
2022/05/27 03:37:22;;;;;;;;;;;;;;;22.06;40.90;96183.72;10349027;28;2018;-60
2022/05/27 03:42:24;;;;;;;;;;;;;;;22.06;40.97;96189.00;10343802;28;2441;-62
2022/05/27 03:47:24;;;;;;;;;;;;;;;22.06;41.09;96193.47;10356045;28;2461;-62
2022/05/27 03:52:25;;;;;;;;;;;;;;;22.06;40.94;96194.25;10338960;28;2355;-61
2022/05/27 03:57:26;;;;;;;;;;;;;;;22.06;41.19;96196.91;10336233;28;2319;-61
2022/05/27 04:02:26;;;;;;;;;;;;;;;22.04;40.77;96195.59;10346146;28;2369;-59
2022/05/27 04:07:26;;;;;;;;;;;;;;;22.04;41.07;96204.31;10379113;28;2315;-59
2022/05/27 04:12:27;;;;;;;;;;;;;;;22.06;40.99;96204.03;10366171;28;2385;-60
2022/05/27 04:17:47;;;;;;;;;;;;;;;22.04;41.01;96196.38;10343571;28;2601;-60
2022/05/27 04:22:51;;;;;;;;;;;;;;;22.03;41.25;96197.44;10353968;28;2387;-59
2022/05/27 04:27:51;;;;;;;;;;;;;;;22.04;40.99;96201.66;10352677;28;2392;-60
2022/05/27 04:32:51;;;;;;;;;;;;;;;22.03;41.10;96191.38;10367666;28;2453;-58
2022/05/27 04:37:52;;;;;;;;;;;;;;;22.06;41.12;96189.00;10359607;28;2401;-57
2022/05/27 04:42:52;;;;;;;;;;;;;;;22.06;41.30;96183.72;10369732;28;2468;-60
2022/05/27 04:47:53;;;;;;;;;;;;;;;22.05;40.95;96190.03;10373748;28;2408;-57
2022/05/27 04:52:53;;;;;;;;;;;;;;;22.07;41.71;96185.28;10351895;28;2394;-60
2022/05/27 04:57:54;;;;;;;;;;;;;;;22.09;41.71;96185.78;10351601;28;2510;-61
2022/05/27 05:02:55;;;;;;;;;;;;;;;22.10;41.57;96178.66;10335445;28;2447;-61
2022/05/27 05:07:57;;;;;;;;;;;;;;;22.12;41.46;96179.19;10338668;28;2311;-59
2022/05/27 05:12:58;;;;;;;;;;;;;;;22.11;41.38;96186.34;10342654;28;2383;-60
2022/05/27 05:17:59;;;;;;;;;;;;;;;22.13;41.38;96181.56;10330373;28;2395;-61
2022/05/27 05:22:59;;;;;;;;;;;;;;;22.13;41.69;96165.72;10335041;28;2367;-60
2022/05/27 05:27:59;;;;;;;;;;;;;;;22.13;41.57;96157.81;10332528;28;2715;-62
2022/05/27 05:33:00;;;;;;;;;;;;;;;22.12;41.62;96166.78;10338428;28;2415;-61
2022/05/27 05:38:04;;;;;;;;;;;;;;;22.14;41.66;96171.78;10345925;28;2339;-61
2022/05/27 05:43:05;;;;;;;;;;;;;;;22.14;41.60;96162.00;10316022;28;2496;-61
2022/05/27 05:48:06;;;;;;;;;;;;;;;22.15;41.54;96173.38;10337361;28;2379;-60
2022/05/27 05:53:06;;;;;;;;;;;;;;;22.16;41.49;96174.94;10339035;28;2423;-58
2022/05/27 05:58:11;;;;;;;;;;;;;;;22.16;41.59;96167.00;10351481;28;2366;-63
2022/05/27 06:03:11;;;;;;;;;;;;;;;22.15;41.68;96166.25;10331475;28;2400;-63
2022/05/27 06:08:11;;;;;;;;;;;;;;;22.16;41.89;96161.72;10353534;28;2062;-62
2022/05/27 06:13:12;;;;;;;;;;;;;;;22.15;42.06;96157.53;10337245;28;2443;-60
2022/05/27 06:18:13;;;;;;;;;;;;;;;22.15;42.12;96157.53;10347958;28;2433;-61
2022/05/27 06:23:14;;;;;;;;;;;;;;;22.14;41.92;96162.00;10349871;28;2370;-62
2022/05/27 06:38:53;;;;;;;;;;;;;;;22.14;42.00;96162.00;10353135;28;2534;-62
2022/05/27 06:43:55;;;;;;;;;;;;;;;22.14;41.86;96161.22;10354004;28;2349;-62
2022/05/27 06:48:55;;;;;;;;;;;;;;;22.15;42.21;96163.59;10339816;28;2294;-62
2022/05/27 06:53:56;;;;;;;;;;;;;;;22.13;42.58;96160.44;10355733;28;2188;-63
2022/05/27 06:58:56;;;;;;;;;;;;;;;22.13;42.54;96152.53;10357749;28;2327;-63
2022/05/27 07:03:57;;;;;;;;;;;;;;;22.13;42.35;96147.25;10341039;28;2641;-63
2022/05/27 07:08:59;;;;;;;;;;;;;;;22.13;42.16;96138.53;10341397;28;2350;-63
2022/05/27 07:13:59;;;;;;;;;;;;;;;22.13;42.45;96135.88;10339775;28;1493;-63
2022/05/27 07:18:59;;;;;;;;;;;;;;;22.13;42.15;96135.88;10340000;28;2791;-63
2022/05/27 07:24:01;;;;;;;;;;;;;;;22.11;42.48;96122.97;10336070;28;2505;-62
2022/05/27 07:29:02;;;;;;;;;;;;;;;22.11;42.25;96125.59;10352455;28;2482;-61
2022/05/27 07:34:02;;;;;;;;;;;;;;;22.13;42.12;96123.47;10356740;28;2404;-62
2022/05/27 07:39:03;;;;;;;;;;;;;;;22.13;42.30;96125.31;10355183;28;2420;-61
2022/05/27 07:44:04;;;;;;;;;;;;;;;22.13;42.21;96112.13;10355490;28;2349;-62
2022/05/27 07:49:04;;;;;;;;;;;;;;;22.11;42.27;96112.41;10335087;28;2572;-63
2022/05/27 07:54:06;;;;;;;;;;;;;;;22.12;42.16;96108.69;10357434;28;2413;-63
2022/05/27 07:59:06;;;;;;;;;;;;;;;22.13;41.60;96094.44;10328538;28;2043;-61
2022/05/27 08:04:06;;;;;;;;;;;;;;;22.15;42.15;96104.72;10336685;28;2515;-62
2022/05/27 08:09:06;;;;;;;;;;;;;;;22.13;41.75;96091.00;10354690;28;2321;-63
2022/05/27 08:14:07;;;;;;;;;;;;;;;22.16;41.77;96098.34;10329268;28;2348;-63
2022/05/27 08:19:07;;;;;;;;;;;;;;;22.16;41.67;96101.78;10325587;28;2305;-62
2022/05/27 08:24:08;;;;;;;;;;;;;;;22.16;41.82;96098.34;10335896;28;2268;-63
2022/05/27 08:29:08;;;;;;;;;;;;;;;22.16;41.91;96088.59;10337694;28;2316;-63
2022/05/27 08:39:28;;;;;;;;;;;;;;;22.17;41.72;96084.91;10352708;28;2193;-63
2022/05/27 08:44:46;;;;;;;;;;;;;;;22.17;41.84;96092.81;10338562;28;2205;-63
2022/05/27 08:49:47;;;;;;;;;;;;;;;22.17;41.52;96084.91;10319769;28;2205;-62
2022/05/27 08:55:04;;;;;;;;;;;;;;;22.18;41.51;96091.75;10337718;28;2542;-62
2022/05/27 09:00:16;;;;;;;;;;;;;;;22.18;41.45;96086.47;10353020;28;2213;-61
2022/05/27 09:05:25;;;;;;;;;;;;;;;22.18;41.72;96078.53;10329039;28;2284;-61
2022/05/27 09:10:30;;;;;;;;;;;;;;;22.20;41.88;96076.41;10348211;28;2506;-62
2022/05/27 09:15:32;;;;;;;;;;;;;;;22.20;41.51;96072.97;10336940;28;2212;-60
2022/05/27 09:20:46;;;;;;;;;;;;;;;22.20;41.74;96067.69;10348732;28;2235;-63
2022/05/27 09:26:25;;;;;;;;;;;;;;;22.22;41.56;96065.56;10319756;28;2295;-62
2022/05/27 09:31:30;;;;;;;;;;;;;;;22.22;41.42;96065.56;10230588;28;2173;-60
2022/05/27 09:36:34;;;;;;;;;;;;;;;22.22;41.57;96069.00;10306221;28;2221;-63
2022/05/27 09:41:53;;;;;;;;;;;;;;;22.22;41.24;96069.00;10320479;28;2171;-62
2022/05/27 09:46:53;;;;;;;;;;;;;;;22.21;41.50;96058.72;10345902;28;2240;-62
2022/05/27 09:51:54;;;;;;;;;;;;;;;22.19;41.46;96052.94;10346808;28;2374;-64
2022/05/27 09:56:58;;;;;;;;;;;;;;;22.18;41.65;96049.50;10350574;28;2320;-62
2022/05/27 10:02:37;;;;;;;;;;;;;;;22.19;41.71;96045.81;10341395;28;2365;-63
2022/05/27 10:07:42;;;;;;;;;;;;;;;22.23;41.41;96056.59;10233264;28;2303;-63
2022/05/27 10:12:43;;;;;;;;;;;;;;;22.20;41.50;96046.56;10333851;28;2335;-61
2022/05/27 10:17:46;;;;;;;;;;;;;;;22.20;41.82;96041.28;10349304;28;2332;-63
2022/05/27 10:22:56;;;;;;;;;;;;;;;22.18;41.61;96033.66;10340253;28;2290;-63
2022/05/27 10:27:57;;;;;;;;;;;;;;;22.15;41.68;96028.94;10365383;28;2300;-63
2022/05/27 10:33:11;;;;;;;;;;;;;;;22.17;41.90;96026.81;10350839;28;2254;-64
2022/05/27 10:38:31;;;;;;;;;;;;;;;22.18;41.71;96023.09;10347719;28;2743;-62
2022/05/27 10:43:40;;;;;;;;;;;;;;;22.17;42.00;96024.19;10371445;28;2216;-63
2022/05/27 10:48:47;;;;;;;;;;;;;;;22.17;41.69;96012.81;10354229;28;2320;-63
2022/05/27 10:53:50;;;;;;;;;;;;;;;22.16;41.80;96012.03;10330833;28;2319;-63
2022/05/27 11:04:31;;;;;;;;;;;;;;;22.20;41.47;96005.13;10347028;28;2097;-63
2022/05/27 11:09:38;;;;;;;;;;;;;;;22.20;41.61;96002.47;10356263;28;2232;-63
2022/05/27 11:15:12;;;;;;;;;;;;;;;22.19;41.62;95992.22;10340148;28;2279;-63
2022/05/27 11:20:24;;;;;;;;;;;;;;;22.18;41.90;95995.91;10352546;28;2169;-61
2022/05/27 11:25:28;;;;;;;;;;;;;;;22.19;41.58;95990.34;10353963;28;2283;-64
2022/05/27 11:30:35;;;;;;;;;;;;;;;22.20;41.61;95978.72;10337767;28;2311;-62
2022/05/27 11:35:38;;;;;;;;;;;;;;;22.20;41.95;95978.72;10336806;28;2177;-65
2022/05/27 11:40:39;;;;;;;;;;;;;;;22.20;41.97;95967.34;10337661;28;2185;-62
2022/05/27 11:45:42;;;;;;;;;;;;;;;22.22;42.04;95965.22;10335043;28;2219;-64
2022/05/27 11:51:04;;;;;;;;;;;;;;;22.24;42.44;95963.88;10337770;28;2358;-62
2022/05/27 11:56:25;;;;;;;;;;;;;;;22.26;42.38;95953.03;10341836;28;2189;-64
2022/05/27 12:01:25;;;;;;;;;;;;;;;22.27;42.38;95944.06;10337989;28;2428;-64
2022/05/27 12:06:31;;;;;;;;;;;;;;;22.26;42.88;95935.34;10329080;28;2379;-63
2022/05/27 12:11:36;;;;;;;;;;;;;;;22.29;42.54;95918.97;10327826;28;2276;-63
2022/05/27 12:16:37;;;;;;;;;;;;;;;22.27;42.57;95923.72;10325361;28;2371;-63
2022/05/27 12:21:48;;;;;;;;;;;;;;;22.28;42.48;95920.00;10320698;28;2307;-60
2022/05/27 12:26:51;;;;;;;;;;;;;;;22.29;42.86;95912.88;10319787;28;2154;-64
2022/05/27 12:31:52;;;;;;;;;;;;;;;22.28;42.51;95909.44;10336828;28;2191;-63
2022/05/27 12:37:19;;;;;;;;;;;;;;;22.28;42.81;95912.09;10350110;28;2177;-62
2022/05/27 12:42:20;;;;;;;;;;;;;;;22.29;42.64;95897.84;10348614;28;2269;-64
2022/05/27 12:47:25;;;;;;;;;;;;;;;22.30;42.76;95899.41;10336530;28;2218;-63
2022/05/27 12:52:28;;;;;;;;;;;;;;;22.29;42.58;95892.56;10321094;28;2180;-64
2022/05/27 13:03:00;;;;;;;;;;;;;;;22.30;42.64;95886.19;10353623;28;2318;-62
2022/05/27 13:08:10;;;;;;;;;;;;;;;22.33;42.66;95874.28;10322331;28;2224;-64
2022/05/27 13:13:11;;;;;;;;;;;;;;;22.32;42.83;95886.69;10351930;28;2241;-63
2022/05/27 13:18:21;;;;;;;;;;;;;;;22.32;42.64;95885.91;10357288;28;2326;-60
2022/05/27 13:23:23;;;;;;;;;;;;;;;22.34;42.76;95881.91;10347419;28;2306;-64
2022/05/27 13:28:27;;;;;;;;;;;;;;;22.34;43.00;95874.00;10350620;28;2208;-62
2022/05/27 13:33:29;;;;;;;;;;;;;;;22.32;42.73;95865.56;10330193;28;2250;-61
2022/05/27 13:38:33;;;;;;;;;;;;;;;22.33;42.97;95851.31;10340804;28;2278;-61
2022/05/27 13:43:35;;;;;;;;;;;;;;;22.33;42.77;95850.50;10343504;28;2361;-62
2022/05/27 13:48:36;;;;;;;;;;;;;;;22.32;42.99;95862.94;10346024;28;2213;-59
2022/05/27 13:53:38;;;;;;;;;;;;;;;22.34;42.90;95844.94;10353317;28;2198;-63
2022/05/27 13:58:45;;;;;;;;;;;;;;;22.35;43.03;95846.53;10347411;28;2340;-61
2022/05/27 14:03:50;;;;;;;;;;;;;;;22.33;42.92;95835.47;10345941;28;2314;-62
2022/05/27 14:08:50;;;;;;;;;;;;;;;22.33;43.26;95840.75;10341310;28;2226;-62
2022/05/27 14:13:51;;;;;;;;;;;;;;;22.34;43.08;95852.09;10350014;28;2194;-63
2022/05/27 14:18:52;;;;;;;;;;;;;;;22.34;43.09;95842.31;10354216;28;2240;-63
2022/05/27 14:23:53;;;;;;;;;;;;;;;22.35;43.08;95830.69;10361796;28;2239;-63
2022/05/27 14:28:55;;;;;;;;;;;;;;;22.34;43.03;95829.09;10329752;28;2235;-62
2022/05/27 14:33:57;;;;;;;;;;;;;;;22.34;43.10;95823.06;10342146;28;2297;-63
2022/05/27 14:38:58;;;;;;;;;;;;;;;22.38;42.97;95837.25;10316884;28;2354;-63
2022/05/27 14:44:01;;;;;;;;;;;;;;;22.37;43.21;95836.47;10323804;28;2203;-63
2022/05/27 14:49:20;;;;;;;;;;;;;;;22.38;43.28;95826.69;10370814;28;2241;-61
2022/05/27 14:54:34;;;;;;;;;;;;;;;22.38;43.25;95816.91;10377090;28;2299;-63
2022/05/27 14:59:35;;;;;;;;;;;;;;;22.39;43.49;95826.41;10362160;28;2239;-63
2022/05/27 15:04:35;;;;;;;;;;;;;;;22.39;43.71;95812.41;10350739;28;2340;-60
2022/05/27 15:09:36;;;;;;;;;;;;;;;22.42;43.42;95822.41;10343053;28;2293;-61
2022/05/27 15:14:42;;;;;;;;;;;;;;;22.43;43.76;95827.41;10335465;28;2279;-63
2022/05/27 15:19:45;;;;;;;;;;;;;;;22.45;43.30;95813.91;10376969;28;2353;-64
2022/05/27 15:24:47;;;;;;;;;;;;;;;22.44;43.32;95818.41;10323391;28;2299;-64
2022/05/27 15:35:11;;;;;;;;;;;;;;;22.43;43.20;95822.13;10348840;28;2161;-64
2022/05/27 15:40:12;;;;;;;;;;;;;;;22.42;43.49;95822.41;10356055;28;2252;-64
2022/05/27 15:45:13;;;;;;;;;;;;;;;22.42;43.15;95833.00;10350253;28;2319;-63
2022/05/27 15:50:14;;;;;;;;;;;;;;;22.41;42.94;95826.91;10336366;28;2343;-63
2022/05/27 15:55:15;;;;;;;;;;;;;;;22.41;43.25;95831.41;10345525;28;2305;-63
2022/05/27 16:00:16;;;;;;;;;;;;;;;22.41;42.85;95832.19;10348375;28;2291;-64
2022/05/27 16:05:18;;;;;;;;;;;;;;;22.42;42.86;95846.97;10334803;28;2348;-65
2022/05/27 16:10:19;;;;;;;;;;;;;;;22.44;42.71;95833.50;10340691;28;2289;-63
2022/05/27 16:15:19;;;;;;;;;;;;;;;22.44;42.34;95852.75;10335647;28;2153;-64
2022/05/27 16:20:23;;;;;;;;;;;;;;;22.42;42.01;95846.97;10339162;28;2287;-64
2022/05/27 16:25:26;;;;;;;;;;;;;;;22.38;41.88;95845.94;10334984;28;2280;-64
2022/05/27 16:30:26;;;;;;;;;;;;;;;22.40;41.95;95864.94;10339513;28;2248;-65
2022/05/27 16:35:27;;;;;;;;;;;;;;;22.39;41.97;95863.38;10347979;28;2236;-64
2022/05/27 16:40:28;;;;;;;;;;;;;;;22.40;41.81;95856.25;10323912;28;2323;-63
2022/05/27 16:45:28;;;;;;;;;;;;;;;22.41;41.95;95869.16;10337626;28;2314;-63
2022/05/27 16:50:29;;;;;;;;;;;;;;;22.39;42.02;95879.22;10332939;28;2556;-64
2022/05/27 16:55:31;;;;;;;;;;;;;;;22.37;41.54;95878.72;10330766;28;2221;-64
2022/05/27 17:00:31;;;;;;;;;;;;;;;22.35;41.81;95893.28;10348326;28;2256;-62
2022/05/27 17:05:32;;;;;;;;;;;;;;;22.37;41.20;95891.94;10347718;28;2208;-63
2022/05/27 17:10:33;;;;;;;;;;;;;;;22.33;41.09;95887.50;10340649;28;2220;-63
2022/05/27 17:15:33;;;;;;;;;;;;;;;22.32;41.31;95899.09;10352199;28;2225;-64
2022/05/27 17:20:34;;;;;;;;;;;;;;;22.37;41.53;95889.28;10348716;28;2267;-64
2022/05/27 17:25:34;;;;;;;;;;;;;;;22.38;41.40;95898.00;10351773;28;2244;-64
2022/05/27 17:30:38;;;;;;;;;;;;;;;22.39;41.40;95896.94;10340050;28;2379;-64
2022/05/27 17:35:39;;;;;;;;;;;;;;;22.35;40.97;95904.63;10323826;28;2317;-62
2022/05/27 17:40:39;;;;;;;;;;;;;;;22.28;41.16;95904.16;10327054;28;2285;-61
2022/05/27 17:45:39;;;;;;;;;;;;;;;22.27;41.21;95904.47;10336662;28;2397;-64
2022/05/27 17:55:59;;;;;;;;;;;;;;;22.26;40.89;95913.44;10334844;28;2390;-64
2022/05/27 18:00:59;;;;;;;;;;;;;;;22.27;40.90;95921.09;10333328;28;2244;-64
2022/05/27 18:06:00;;;;;;;;;;;;;;;22.25;40.94;95928.50;10306215;28;2342;-63
2022/05/27 18:11:00;;;;;;;;;;;;;;;22.22;40.90;95933.53;10332722;28;2276;-64
2022/05/27 18:16:04;;;;;;;;;;;;;;;22.17;40.77;95944.97;10369207;28;2283;-64
2022/05/27 18:21:05;;;;;;;;;;;;;;;22.16;40.74;95934.66;10325352;28;2360;-63
2022/05/27 18:26:05;;;;;;;;;;;;;;;22.13;40.60;95945.78;10337690;28;2257;-63
2022/05/27 18:31:06;;;;;;;;;;;;;;;22.15;40.52;95943.66;10338608;28;2302;-65
2022/05/27 18:36:07;;;;;;;;;;;;;;;22.16;40.58;95939.94;10337597;28;2161;-63
2022/05/27 18:41:08;;;;;;;;;;;;;;;22.16;40.73;95945.22;10340018;28;2233;-64
2022/05/27 18:46:08;;;;;;;;;;;;;;;22.17;40.95;95952.88;10337126;28;2169;-62
2022/05/27 18:51:10;;;;;;;;;;;;;;;22.21;40.77;95955.75;10335807;28;2261;-61
2022/05/27 18:56:11;;;;;;;;;;;;;;;22.23;41.06;95951.78;10329446;28;2305;-61
2022/05/27 19:01:12;;;;;;;;;;;;;;;22.24;40.90;95958.59;10356088;28;2173;-61
2022/05/27 19:06:12;;;;;;;;;;;;;;;22.26;40.86;95955.69;10353324;28;2209;-60
2022/05/27 19:11:12;;;;;;;;;;;;;;;22.25;41.06;95968.13;10356098;28;2331;-59
2022/05/27 19:16:13;;;;;;;;;;;;;;;22.23;40.91;95980.81;10353216;28;2205;-60
2022/05/27 19:21:19;;;;;;;;;;;;;;;22.26;40.84;95984.72;10355465;28;2318;-60
2022/05/27 19:26:24;;;;;;;;;;;;;;;22.27;41.14;95984.47;10334884;28;2186;-60
2022/05/27 19:31:25;;;;;;;;;;;;;;;22.28;40.86;96001.88;10354233;28;2173;-61
2022/05/27 19:36:26;;;;;;;;;;;;;;;22.28;41.25;96001.88;10327180;28;2134;-60
2022/05/27 19:41:26;;;;;;;;;;;;;;;22.31;41.34;95997.91;10350414;28;2224;-61
2022/05/27 19:46:26;;;;;;;;;;;;;;;22.29;41.37;96005.31;10337238;28;2214;-63
2022/05/27 19:51:28;;;;;;;;;;;;;;;22.28;41.74;95996.59;10339548;28;2293;-61
2022/05/27 19:56:30;;;;;;;;;;;;;;;22.29;41.60;96007.94;10335128;28;2263;-62
2022/05/27 20:01:31;;;;;;;;;;;;;;;22.27;41.78;96005.59;10359723;28;2308;-63
2022/05/27 20:06:31;;;;;;;;;;;;;;;22.28;41.71;96001.88;10361279;28;2376;-60
2022/05/27 20:11:34;;;;;;;;;;;;;;;22.27;41.59;96004.81;10351870;28;2212;-62
2022/05/27 20:16:39;;;;;;;;;;;;;;;22.27;41.88;96015.38;10350361;28;2233;-60
2022/05/27 20:21:40;;;;;;;;;;;;;;;22.27;41.92;96005.59;10321650;28;2248;-63
2022/05/27 20:26:42;;;;;;;;;;;;;;;22.24;41.93;96016.69;10333387;28;2410;-62
2022/05/27 20:31:42;;;;;;;;;;;;;;;22.25;41.92;96015.66;10353271;28;2311;-59
2022/05/27 20:36:57;;;;;;;;;;;;;;;22.26;42.30;96026.97;10349296;28;2291;-61
2022/05/27 20:41:58;;;;;;;;;;;;;;;22.27;42.03;96029.38;10329248;28;2213;-61
2022/05/27 20:46:59;;;;;;;;;;;;;;;22.27;42.28;96031.22;10340091;28;2213;-62
2022/05/27 20:51:59;;;;;;;;;;;;;;;22.26;42.25;96017.22;10361477;28;2341;-63
2022/05/27 20:56:59;;;;;;;;;;;;;;;22.25;42.44;96015.66;10340634;28;2126;-63
2022/05/27 21:02:00;;;;;;;;;;;;;;;22.24;42.46;96008.78;10339137;28;2235;-62
2022/05/27 21:07:00;;;;;;;;;;;;;;;22.23;42.51;96004.59;10357056;28;2313;-63
2022/05/27 21:12:01;;;;;;;;;;;;;;;22.22;42.45;96003.00;10365540;28;2173;-64
2022/05/27 21:17:02;;;;;;;;;;;;;;;22.25;42.44;96001.66;10350807;28;2228;-63
2022/05/27 21:22:02;;;;;;;;;;;;;;;22.22;42.30;96000.34;10336972;28;2235;-64
2022/05/27 21:27:07;;;;;;;;;;;;;;;22.21;42.35;96022.56;10347804;28;2273;-63
2022/05/27 21:32:08;;;;;;;;;;;;;;;22.19;42.18;96011.47;10344824;28;2201;-63
2022/05/27 21:37:08;;;;;;;;;;;;;;;22.20;42.40;95994.56;10335658;28;2250;-63
2022/05/27 21:42:09;;;;;;;;;;;;;;;22.18;42.34;96003.81;10333821;28;2250;-62
2022/05/27 21:47:10;;;;;;;;;;;;;;;22.17;42.34;96005.69;10364875;28;2172;-61
2022/05/27 21:52:11;;;;;;;;;;;;;;;22.15;42.64;96015.75;10371226;28;2318;-62
2022/05/27 21:57:12;;;;;;;;;;;;;;;22.16;42.34;96008.59;10365659;28;2323;-62
2022/05/27 22:02:13;;;;;;;;;;;;;;;22.16;42.42;96011.22;10361341;28;2264;-63
2022/05/27 22:07:14;;;;;;;;;;;;;;;22.14;42.51;96011.50;10376246;28;2295;-63
2022/05/27 22:17:33;;;;;;;;;;;;;;;22.23;42.12;96009.88;10362164;28;2196;-63
2022/05/27 22:22:33;;;;;;;;;;;;;;;22.24;42.13;96011.41;10360996;28;2357;-62
2022/05/27 22:27:33;;;;;;;;;;;;;;;22.26;41.97;96009.28;10359951;28;2354;-64
2022/05/27 22:32:34;;;;;;;;;;;;;;;22.28;41.91;96004.53;10332341;28;2248;-63
2022/05/27 22:37:35;;;;;;;;;;;;;;;22.29;41.74;96002.66;10360273;28;2170;-62
2022/05/27 22:42:35;;;;;;;;;;;;;;;22.29;41.71;96008.75;10339295;28;2257;-63
2022/05/27 22:47:35;;;;;;;;;;;;;;;22.28;41.86;95991.31;10345658;28;2183;-63
2022/05/27 22:52:36;;;;;;;;;;;;;;;22.29;42.08;95992.09;10338484;28;2274;-63
2022/05/27 22:57:36;;;;;;;;;;;;;;;22.29;41.94;95992.91;10340326;28;2371;-63
2022/05/27 23:02:37;;;;;;;;;;;;;;;22.29;42.20;95992.09;10358523;28;2259;-64
2022/05/27 23:07:37;;;;;;;;;;;;;;;22.29;42.09;95982.34;10341111;28;2214;-62
2022/05/27 23:23:16;;;;;;;;;;;;;;;22.29;41.87;95969.13;10357999;28;2327;-62
2022/05/27 23:28:17;;;;;;;;;;;;;;;22.30;42.01;95962.78;10342935;28;2419;-63
2022/05/27 23:33:17;;;;;;;;;;;;;;;22.29;42.12;95961.22;10335041;28;2329;-62
2022/05/27 23:38:18;;;;;;;;;;;;;;;22.29;42.03;95958.56;10334674;28;2250;-62
2022/05/27 23:43:19;;;;;;;;;;;;;;;22.29;41.74;95947.22;10352241;28;2342;-63
2022/05/27 23:48:19;;;;;;;;;;;;;;;22.28;41.87;95943.78;10339042;28;2158;-62
2022/05/27 23:53:20;;;;;;;;;;;;;;;22.29;42.16;95931.38;10339078;28;2262;-62
2022/05/27 23:58:20;;;;;;;;;;;;;;;22.27;41.76;95929.00;10357223;28;2304;-63
